If you wish to contribute or participate in the discussions about articles you are invited to join SKYbrary as a registered user

 Actions

Nancy-Essey Airport

From SKYbrary Wiki

LFSN
Airport
ICAO: LFSN – IATA: ENC
Summary
Name Nancy-Essey Airport
Region Europe
Territory France FR.gif
Location , Lorraine
Serving Nancy
Elevation 228.905 m
751 ft
751 ft228.905 m
Type medium airport
Coordinates 48° 41' 31.45" N, 6° 13' 49.65" E
Runways
Designator Length Width Surface ROPS
3/21 1400 m4,593.176 ft
40 m131.234 ft
ASP yes/yes


METAR
Observation LFSN 200530Z AUTO 03004KT 0600 0500 R03/0600N FZFG VV/// M02/M02 Q1017
Station Nancy / Essey
Date/Time 20 November 2019 05:30:00
Wind direction 30°
Wind speed 04 kts
Lowest cloud amount n/a
Temperature 3°C
Dew point 0°C
Humidity 80%
QNH 1017 hPa
Weather condition n/a